sensor_id;sensor_type;location;lat;lon;timestamp;temperature;humidity
24860;DHT22;12936;52.006;4.350;2023-06-01T00:00:35;17.40;99.90
24860;DHT22;12936;52.006;4.350;2023-06-01T00:03:05;17.40;99.90
24860;DHT22;12936;52.006;4.350;2023-06-01T00:05:37;17.30;99.90
24860;DHT22;12936;52.006;4.350;2023-06-01T00:08:07;17.30;99.90
24860;DHT22;12936;52.006;4.350;2023-06-01T00:10:36;17.40;99.90
24860;DHT22;12936;52.006;4.350;2023-06-01T00:13:04;17.30;99.90
24860;DHT22;12936;52.006;4.350;2023-06-01T00:15:35;17.30;99.90
24860;DHT22;12936;52.006;4.350;2023-06-01T00:18:03;17.30;99.90
24860;DHT22;12936;52.006;4.350;2023-06-01T00:20:32;17.30;99.90
24860;DHT22;12936;52.006;4.350;2023-06-01T00:23:02;17.20;99.90
24860;DHT22;12936;52.006;4.350;2023-06-01T00:25:31;17.10;99.90
24860;DHT22;12936;52.006;4.350;2023-06-01T00:27:59;17.10;99.90
24860;DHT22;12936;52.006;4.350;2023-06-01T00:30:29;17.10;99.90
24860;DHT22;12936;52.006;4.350;2023-06-01T00:32:58;17.10;99.90
24860;DHT22;12936;52.006;4.350;2023-06-01T00:35:29;17.10;99.90
24860;DHT22;12936;52.006;4.350;2023-06-01T00:37:58;17.00;99.90
24860;DHT22;12936;52.006;4.350;2023-06-01T00:40:28;16.90;99.90
24860;DHT22;12936;52.006;4.350;2023-06-01T00:42:56;16.80;99.90
24860;DHT22;12936;52.006;4.350;2023-06-01T00:45:24;16.80;99.90
24860;DHT22;12936;52.006;4.350;2023-06-01T00:47:52;16.80;99.90
24860;DHT22;12936;52.006;4.350;2023-06-01T00:50:22;16.80;99.90
24860;DHT22;12936;52.006;4.350;2023-06-01T00:52:51;16.70;99.90
24860;DHT22;12936;52.006;4.350;2023-06-01T00:55:21;16.70;99.90
24860;DHT22;12936;52.006;4.350;2023-06-01T00:57:55;16.60;99.90
24860;DHT22;12936;52.006;4.350;2023-06-01T01:00:29;16.60;99.90
24860;DHT22;12936;52.006;4.350;2023-06-01T01:02:58;16.50;99.90
24860;DHT22;12936;52.006;4.350;2023-06-01T01:05:27;16.50;99.90
24860;DHT22;12936;52.006;4.350;2023-06-01T01:08:02;16.50;99.90
24860;DHT22;12936;52.006;4.350;2023-06-01T01:10:55;16.50;99.90
24860;DHT22;12936;52.006;4.350;2023-06-01T01:13:41;16.50;99.90
24860;DHT22;12936;52.006;4.350;2023-06-01T01:16:23;16.50;99.90
24860;DHT22;12936;52.006;4.350;2023-06-01T01:19:03;16.50;99.90
24860;DHT22;12936;52.006;4.350;2023-06-01T01:22:10;16.40;99.90
24860;DHT22;12936;52.006;4.350;2023-06-01T01:25:02;16.40;99.90
24860;DHT22;12936;52.006;4.350;2023-06-01T01:27:43;16.40;99.90
24860;DHT22;12936;52.006;4.350;2023-06-01T01:30:15;16.40;99.90
24860;DHT22;12936;52.006;4.350;2023-06-01T01:32:49;16.40;99.90
24860;DHT22;12936;52.006;4.350;2023-06-01T01:35:19;16.30;99.90
24860;DHT22;12936;52.006;4.350;2023-06-01T01:37:50;16.30;99.90
24860;DHT22;12936;52.006;4.350;2023-06-01T01:40:19;16.20;99.90
24860;DHT22;12936;52.006;4.350;2023-06-01T01:42:49;16.30;99.90
24860;DHT22;12936;52.006;4.350;2023-06-01T01:45:22;16.20;99.90
24860;DHT22;12936;52.006;4.350;2023-06-01T01:47:57;16.30;99.90
24860;DHT22;12936;52.006;4.350;2023-06-01T01:50:32;16.20;99.90
24860;DHT22;12936;52.006;4.350;2023-06-01T01:53:02;16.20;99.90
24860;DHT22;12936;52.006;4.350;2023-06-01T01:55:35;16.30;99.90
24860;DHT22;12936;52.006;4.350;2023-06-01T01:58:05;16.20;99.90
24860;DHT22;12936;52.006;4.350;2023-06-01T02:00:36;16.20;99.90
24860;DHT22;12936;52.006;4.350;2023-06-01T02:03:13;16.20;99.90
24860;DHT22;12936;52.006;4.350;2023-06-01T02:05:42;16.10;99.90
24860;DHT22;12936;52.006;4.350;2023-06-01T02:08:16;16.10;99.90
24860;DHT22;12936;52.006;4.350;2023-06-01T02:10:46;16.10;99.90
24860;DHT22;12936;52.006;4.350;2023-06-01T02:13:14;16.10;99.90
24860;DHT22;12936;52.006;4.350;2023-06-01T02:15:43;16.10;99.90
24860;DHT22;12936;52.006;4.350;2023-06-01T02:18:12;16.00;99.90
24860;DHT22;12936;52.006;4.350;2023-06-01T02:20:44;16.00;99.90
24860;DHT22;12936;52.006;4.350;2023-06-01T02:23:13;16.00;99.90
24860;DHT22;12936;52.006;4.350;2023-06-01T02:25:41;16.00;99.90
24860;DHT22;12936;52.006;4.350;2023-06-01T02:28:10;16.00;99.90
24860;DHT22;12936;52.006;4.350;2023-06-01T02:30:40;16.00;99.90
24860;DHT22;12936;52.006;4.350;2023-06-01T02:33:10;15.90;99.90
24860;DHT22;12936;52.006;4.350;2023-06-01T02:35:38;15.90;99.90
24860;DHT22;12936;52.006;4.350;2023-06-01T02:38:08;15.80;99.90
24860;DHT22;12936;52.006;4.350;2023-06-01T02:40:36;15.80;99.90
24860;DHT22;12936;52.006;4.350;2023-06-01T02:43:05;15.70;99.90
24860;DHT22;12936;52.006;4.350;2023-06-01T02:45:33;15.70;99.90
24860;DHT22;12936;52.006;4.350;2023-06-01T02:48:05;15.80;99.90
24860;DHT22;12936;52.006;4.350;2023-06-01T02:50:35;15.80;99.90
24860;DHT22;12936;52.006;4.350;2023-06-01T02:53:06;15.80;99.90
24860;DHT22;12936;52.006;4.350;2023-06-01T02:55:34;15.70;99.90
24860;DHT22;12936;52.006;4.350;2023-06-01T02:58:03;15.80;99.90
24860;DHT22;12936;52.006;4.350;2023-06-01T03:00:31;15.70;99.90
24860;DHT22;12936;52.006;4.350;2023-06-01T03:02:59;15.70;99.90
24860;DHT22;12936;52.006;4.350;2023-06-01T03:05:27;15.70;99.90
24860;DHT22;12936;52.006;4.350;2023-06-01T03:07:58;15.70;99.90
24860;DHT22;12936;52.006;4.350;2023-06-01T03:10:27;15.70;99.90
24860;DHT22;12936;52.006;4.350;2023-06-01T03:12:56;15.70;99.90
24860;DHT22;12936;52.006;4.350;2023-06-01T03:15:24;15.70;99.90
24860;DHT22;12936;52.006;4.350;2023-06-01T03:17:54;15.60;99.90
24860;DHT22;12936;52.006;4.350;2023-06-01T03:20:22;15.60;99.90
24860;DHT22;12936;52.006;4.350;2023-06-01T03:22:50;15.60;99.90
24860;DHT22;12936;52.006;4.350;2023-06-01T03:25:20;15.60;99.90
24860;DHT22;12936;52.006;4.350;2023-06-01T03:27:49;15.60;99.90
24860;DHT22;12936;52.006;4.350;2023-06-01T03:30:21;15.60;99.90
24860;DHT22;12936;52.006;4.350;2023-06-01T03:32:50;15.60;99.90
24860;DHT22;12936;52.006;4.350;2023-06-01T03:35:18;15.60;99.90
24860;DHT22;12936;52.006;4.350;2023-06-01T03:37:46;15.60;99.90
24860;DHT22;12936;52.006;4.350;2023-06-01T03:40:14;15.60;99.90
24860;DHT22;12936;52.006;4.350;2023-06-01T03:42:47;15.60;99.90
24860;DHT22;12936;52.006;4.350;2023-06-01T03:45:16;15.60;99.90
24860;DHT22;12936;52.006;4.350;2023-06-01T03:47:44;15.60;99.90
24860;DHT22;12936;52.006;4.350;2023-06-01T03:50:13;15.60;99.90
24860;DHT22;12936;52.006;4.350;2023-06-01T03:52:42;15.60;99.90
24860;DHT22;12936;52.006;4.350;2023-06-01T03:55:12;15.60;99.90
24860;DHT22;12936;52.006;4.350;2023-06-01T03:57:47;15.60;99.90
24860;DHT22;12936;52.006;4.350;2023-06-01T04:00:21;15.60;99.90
24860;DHT22;12936;52.006;4.350;2023-06-01T04:02:56;15.60;99.90
24860;DHT22;12936;52.006;4.350;2023-06-01T04:05:26;15.60;99.90
24860;DHT22;12936;52.006;4.350;2023-06-01T04:07:56;15.60;99.90
24860;DHT22;12936;52.006;4.350;2023-06-01T04:10:47;15.60;99.90
24860;DHT22;12936;52.006;4.350;2023-06-01T04:13:19;15.60;99.90
24860;DHT22;12936;52.006;4.350;2023-06-01T04:15:47;15.60;99.90
24860;DHT22;12936;52.006;4.350;2023-06-01T04:18:15;15.60;99.90
24860;DHT22;12936;52.006;4.350;2023-06-01T04:20:44;15.60;99.90
24860;DHT22;12936;52.006;4.350;2023-06-01T04:23:14;15.60;99.90
24860;DHT22;12936;52.006;4.350;2023-06-01T04:25:46;15.60;99.90
24860;DHT22;12936;52.006;4.350;2023-06-01T04:28:19;15.60;99.90
24860;DHT22;12936;52.006;4.350;2023-06-01T04:30:47;15.60;99.90
24860;DHT22;12936;52.006;4.350;2023-06-01T04:33:35;15.60;99.90
24860;DHT22;12936;52.006;4.350;2023-06-01T04:36:04;15.60;99.90
24860;DHT22;12936;52.006;4.350;2023-06-01T04:38:34;15.60;99.90
24860;DHT22;12936;52.006;4.350;2023-06-01T04:41:03;15.60;99.90
24860;DHT22;12936;52.006;4.350;2023-06-01T04:43:32;15.60;99.90
24860;DHT22;12936;52.006;4.350;2023-06-01T04:46:01;15.60;99.90
24860;DHT22;12936;52.006;4.350;2023-06-01T04:48:31;15.60;99.90
24860;DHT22;12936;52.006;4.350;2023-06-01T04:51:01;15.60;99.90
24860;DHT22;12936;52.006;4.350;2023-06-01T04:53:30;15.60;99.90
24860;DHT22;12936;52.006;4.350;2023-06-01T04:56:11;15.60;99.90
24860;DHT22;12936;52.006;4.350;2023-06-01T04:58:43;15.60;99.90
24860;DHT22;12936;52.006;4.350;2023-06-01T05:01:12;15.60;99.90
24860;DHT22;12936;52.006;4.350;2023-06-01T05:03:43;15.60;99.90
24860;DHT22;12936;52.006;4.350;2023-06-01T05:06:12;15.60;99.90
24860;DHT22;12936;52.006;4.350;2023-06-01T05:08:41;15.60;99.90
24860;DHT22;12936;52.006;4.350;2023-06-01T05:11:10;15.60;99.90
24860;DHT22;12936;52.006;4.350;2023-06-01T05:13:40;15.60;99.90
24860;DHT22;12936;52.006;4.350;2023-06-01T05:16:12;15.60;99.90
24860;DHT22;12936;52.006;4.350;2023-06-01T05:18:41;15.60;99.90
24860;DHT22;12936;52.006;4.350;2023-06-01T05:21:09;15.60;99.90
24860;DHT22;12936;52.006;4.350;2023-06-01T05:23:37;15.60;99.90
24860;DHT22;12936;52.006;4.350;2023-06-01T05:26:06;15.60;99.90
24860;DHT22;12936;52.006;4.350;2023-06-01T05:28:34;15.70;99.90
24860;DHT22;12936;52.006;4.350;2023-06-01T05:31:24;15.70;99.90
24860;DHT22;12936;52.006;4.350;2023-06-01T05:33:52;15.70;99.90
24860;DHT22;12936;52.006;4.350;2023-06-01T05:36:22;15.70;99.90
24860;DHT22;12936;52.006;4.350;2023-06-01T05:38:50;15.70;99.90
24860;DHT22;12936;52.006;4.350;2023-06-01T05:41:20;15.70;99.90
24860;DHT22;12936;52.006;4.350;2023-06-01T05:43:48;15.70;99.90
24860;DHT22;12936;52.006;4.350;2023-06-01T05:46:17;15.70;99.90
24860;DHT22;12936;52.006;4.350;2023-06-01T05:48:47;15.70;99.90
24860;DHT22;12936;52.006;4.350;2023-06-01T05:51:15;15.70;99.90
24860;DHT22;12936;52.006;4.350;2023-06-01T05:53:45;15.70;99.90
24860;DHT22;12936;52.006;4.350;2023-06-01T05:56:16;15.80;99.90
24860;DHT22;12936;52.006;4.350;2023-06-01T05:58:45;15.80;99.90
24860;DHT22;12936;52.006;4.350;2023-06-01T06:01:17;15.80;99.90
24860;DHT22;12936;52.006;4.350;2023-06-01T06:03:48;15.90;99.90
24860;DHT22;12936;52.006;4.350;2023-06-01T06:06:19;15.90;99.90
24860;DHT22;12936;52.006;4.350;2023-06-01T06:08:50;15.90;99.90
24860;DHT22;12936;52.006;4.350;2023-06-01T06:11:20;15.90;99.90
24860;DHT22;12936;52.006;4.350;2023-06-01T06:14:08;15.90;99.90
24860;DHT22;12936;52.006;4.350;2023-06-01T06:16:38;16.00;99.90
24860;DHT22;12936;52.006;4.350;2023-06-01T06:19:08;16.00;99.90
24860;DHT22;12936;52.006;4.350;2023-06-01T06:21:37;16.00;99.90
24860;DHT22;12936;52.006;4.350;2023-06-01T06:24:05;16.10;99.90
24860;DHT22;12936;52.006;4.350;2023-06-01T06:26:33;16.10;99.90
24860;DHT22;12936;52.006;4.350;2023-06-01T06:29:02;16.10;99.90
24860;DHT22;12936;52.006;4.350;2023-06-01T06:31:30;16.10;99.90
24860;DHT22;12936;52.006;4.350;2023-06-01T06:33:59;16.10;99.90
24860;DHT22;12936;52.006;4.350;2023-06-01T06:36:28;16.10;99.90
24860;DHT22;12936;52.006;4.350;2023-06-01T06:38:56;16.10;99.90
24860;DHT22;12936;52.006;4.350;2023-06-01T06:41:24;16.10;99.90
24860;DHT22;12936;52.006;4.350;2023-06-01T06:43:52;16.20;99.90
24860;DHT22;12936;52.006;4.350;2023-06-01T06:46:21;16.20;99.90
24860;DHT22;12936;52.006;4.350;2023-06-01T06:48:49;16.20;99.90
24860;DHT22;12936;52.006;4.350;2023-06-01T06:51:17;16.30;99.90
24860;DHT22;12936;52.006;4.350;2023-06-01T06:54:06;16.30;99.90
24860;DHT22;12936;52.006;4.350;2023-06-01T06:56:41;16.30;99.90
24860;DHT22;12936;52.006;4.350;2023-06-01T06:59:09;16.40;99.90
24860;DHT22;12936;52.006;4.350;2023-06-01T07:01:37;16.40;99.90
24860;DHT22;12936;52.006;4.350;2023-06-01T07:04:08;16.40;99.90
24860;DHT22;12936;52.006;4.350;2023-06-01T07:06:36;16.40;99.90
24860;DHT22;12936;52.006;4.350;2023-06-01T07:09:06;16.40;99.90
24860;DHT22;12936;52.006;4.350;2023-06-01T07:11:36;16.40;99.90
24860;DHT22;12936;52.006;4.350;2023-06-01T07:14:04;16.40;99.90
24860;DHT22;12936;52.006;4.350;2023-06-01T07:16:32;16.40;99.90
24860;DHT22;12936;52.006;4.350;2023-06-01T07:19:00;16.40;99.90
24860;DHT22;12936;52.006;4.350;2023-06-01T07:21:29;16.50;99.90
24860;DHT22;12936;52.006;4.350;2023-06-01T07:23:57;16.50;99.90
24860;DHT22;12936;52.006;4.350;2023-06-01T07:26:27;16.60;99.90
24860;DHT22;12936;52.006;4.350;2023-06-01T07:28:56;16.60;99.90
24860;DHT22;12936;52.006;4.350;2023-06-01T07:31:26;16.60;99.90
24860;DHT22;12936;52.006;4.350;2023-06-01T07:33:55;16.60;99.90
24860;DHT22;12936;52.006;4.350;2023-06-01T07:36:23;16.60;99.90
24860;DHT22;12936;52.006;4.350;2023-06-01T07:38:52;16.60;99.90
24860;DHT22;12936;52.006;4.350;2023-06-01T07:41:22;16.60;99.90
24860;DHT22;12936;52.006;4.350;2023-06-01T07:43:52;16.60;99.90
24860;DHT22;12936;52.006;4.350;2023-06-01T07:46:20;16.60;99.90
24860;DHT22;12936;52.006;4.350;2023-06-01T07:48:48;16.60;99.90
24860;DHT22;12936;52.006;4.350;2023-06-01T07:51:17;16.50;99.90
24860;DHT22;12936;52.006;4.350;2023-06-01T07:53:45;16.60;99.90
24860;DHT22;12936;52.006;4.350;2023-06-01T07:56:13;16.60;99.90
24860;DHT22;12936;52.006;4.350;2023-06-01T07:58:41;16.60;99.90
24860;DHT22;12936;52.006;4.350;2023-06-01T08:01:12;16.60;99.90
24860;DHT22;12936;52.006;4.350;2023-06-01T08:03:42;16.60;99.90
24860;DHT22;12936;52.006;4.350;2023-06-01T08:06:11;16.60;99.90
24860;DHT22;12936;52.006;4.350;2023-06-01T08:08:39;16.60;99.90
24860;DHT22;12936;52.006;4.350;2023-06-01T08:11:10;16.60;99.90
24860;DHT22;12936;52.006;4.350;2023-06-01T08:13:38;16.60;99.90
24860;DHT22;12936;52.006;4.350;2023-06-01T08:16:08;16.70;99.90
24860;DHT22;12936;52.006;4.350;2023-06-01T08:18:37;16.70;99.90
24860;DHT22;12936;52.006;4.350;2023-06-01T08:21:05;16.70;99.90
24860;DHT22;12936;52.006;4.350;2023-06-01T08:23:35;16.70;99.90
24860;DHT22;12936;52.006;4.350;2023-06-01T08:26:03;16.70;99.90
24860;DHT22;12936;52.006;4.350;2023-06-01T08:28:32;16.70;99.90
24860;DHT22;12936;52.006;4.350;2023-06-01T08:31:00;16.70;99.90
24860;DHT22;12936;52.006;4.350;2023-06-01T08:33:29;16.80;99.90
24860;DHT22;12936;52.006;4.350;2023-06-01T08:35:58;16.80;99.90
24860;DHT22;12936;52.006;4.350;2023-06-01T08:38:26;16.80;99.90
24860;DHT22;12936;52.006;4.350;2023-06-01T08:41:00;16.90;99.90
24860;DHT22;12936;52.006;4.350;2023-06-01T08:43:32;16.90;99.90
24860;DHT22;12936;52.006;4.350;2023-06-01T08:46:06;17.00;99.90
24860;DHT22;12936;52.006;4.350;2023-06-01T08:48:35;17.00;99.90
24860;DHT22;12936;52.006;4.350;2023-06-01T08:51:06;17.00;99.90
24860;DHT22;12936;52.006;4.350;2023-06-01T08:53:35;17.10;99.90
24860;DHT22;12936;52.006;4.350;2023-06-01T08:56:09;17.10;99.90
24860;DHT22;12936;52.006;4.350;2023-06-01T08:58:37;17.10;99.90
24860;DHT22;12936;52.006;4.350;2023-06-01T09:01:05;17.20;99.90
24860;DHT22;12936;52.006;4.350;2023-06-01T09:03:33;17.20;99.90
24860;DHT22;12936;52.006;4.350;2023-06-01T09:06:01;17.20;99.90
24860;DHT22;12936;52.006;4.350;2023-06-01T09:08:32;17.20;99.90
24860;DHT22;12936;52.006;4.350;2023-06-01T09:11:01;17.30;99.90
24860;DHT22;12936;52.006;4.350;2023-06-01T09:13:33;17.30;99.90
24860;DHT22;12936;52.006;4.350;2023-06-01T09:16:02;17.30;99.90
24860;DHT22;12936;52.006;4.350;2023-06-01T09:18:32;17.30;99.90
24860;DHT22;12936;52.006;4.350;2023-06-01T09:21:10;17.30;99.90
24860;DHT22;12936;52.006;4.350;2023-06-01T09:23:40;17.30;99.90
24860;DHT22;12936;52.006;4.350;2023-06-01T09:26:10;17.40;99.90
24860;DHT22;12936;52.006;4.350;2023-06-01T09:28:56;17.40;99.90
24860;DHT22;12936;52.006;4.350;2023-06-01T09:31:38;17.40;99.90
24860;DHT22;12936;52.006;4.350;2023-06-01T09:34:08;17.50;99.90
24860;DHT22;12936;52.006;4.350;2023-06-01T09:36:38;17.50;99.90
24860;DHT22;12936;52.006;4.350;2023-06-01T09:39:09;17.50;99.90
24860;DHT22;12936;52.006;4.350;2023-06-01T09:41:49;17.60;99.90
24860;DHT22;12936;52.006;4.350;2023-06-01T09:44:25;17.50;99.90
24860;DHT22;12936;52.006;4.350;2023-06-01T09:46:55;17.60;99.90
24860;DHT22;12936;52.006;4.350;2023-06-01T09:49:25;17.60;99.90
24860;DHT22;12936;52.006;4.350;2023-06-01T09:52:08;17.60;99.90
24860;DHT22;12936;52.006;4.350;2023-06-01T09:54:40;17.70;99.90
24860;DHT22;12936;52.006;4.350;2023-06-01T09:57:08;17.70;99.90
24860;DHT22;12936;52.006;4.350;2023-06-01T09:59:43;17.80;99.90
24860;DHT22;12936;52.006;4.350;2023-06-01T10:02:17;17.80;99.90
24860;DHT22;12936;52.006;4.350;2023-06-01T10:04:48;17.80;99.90
24860;DHT22;12936;52.006;4.350;2023-06-01T10:07:18;17.90;99.90
24860;DHT22;12936;52.006;4.350;2023-06-01T10:09:51;17.90;99.90
24860;DHT22;12936;52.006;4.350;2023-06-01T10:12:19;17.90;99.90
24860;DHT22;12936;52.006;4.350;2023-06-01T10:14:48;17.90;99.90
24860;DHT22;12936;52.006;4.350;2023-06-01T10:17:19;17.90;99.90
24860;DHT22;12936;52.006;4.350;2023-06-01T10:19:48;17.80;99.90
24860;DHT22;12936;52.006;4.350;2023-06-01T10:22:17;17.90;99.90
24860;DHT22;12936;52.006;4.350;2023-06-01T10:24:56;17.90;99.90
24860;DHT22;12936;52.006;4.350;2023-06-01T10:27:29;17.90;99.90
24860;DHT22;12936;52.006;4.350;2023-06-01T10:29:59;17.90;99.90
24860;DHT22;12936;52.006;4.350;2023-06-01T10:32:46;17.80;99.90
24860;DHT22;12936;52.006;4.350;2023-06-01T10:38:32;17.80;99.90
24860;DHT22;12936;52.006;4.350;2023-06-01T10:41:27;17.90;99.90
24860;DHT22;12936;52.006;4.350;2023-06-01T10:43:57;17.90;99.90
24860;DHT22;12936;52.006;4.350;2023-06-01T10:46:38;17.90;99.90
24860;DHT22;12936;52.006;4.350;2023-06-01T10:49:11;17.90;99.90
24860;DHT22;12936;52.006;4.350;2023-06-01T10:51:39;17.80;99.90
24860;DHT22;12936;52.006;4.350;2023-06-01T10:54:28;17.90;99.90
24860;DHT22;12936;52.006;4.350;2023-06-01T10:57:20;17.90;99.90
24860;DHT22;12936;52.006;4.350;2023-06-01T11:00:12;18.00;99.90
24860;DHT22;12936;52.006;4.350;2023-06-01T11:02:43;18.00;99.90
24860;DHT22;12936;52.006;4.350;2023-06-01T11:05:42;18.00;99.90
24860;DHT22;12936;52.006;4.350;2023-06-01T11:08:50;18.00;99.90
24860;DHT22;12936;52.006;4.350;2023-06-01T11:11:21;18.00;99.90
24860;DHT22;12936;52.006;4.350;2023-06-01T11:14:23;18.00;99.90
24860;DHT22;12936;52.006;4.350;2023-06-01T11:16:52;18.00;99.90
24860;DHT22;12936;52.006;4.350;2023-06-01T11:19:22;18.00;99.90
24860;DHT22;12936;52.006;4.350;2023-06-01T11:21:56;18.00;99.90
24860;DHT22;12936;52.006;4.350;2023-06-01T11:24:34;18.00;99.90
24860;DHT22;12936;52.006;4.350;2023-06-01T11:27:05;18.00;99.90
24860;DHT22;12936;52.006;4.350;2023-06-01T11:29:36;18.10;99.90
24860;DHT22;12936;52.006;4.350;2023-06-01T11:32:06;18.10;99.90
24860;DHT22;12936;52.006;4.350;2023-06-01T11:34:36;18.10;99.90
24860;DHT22;12936;52.006;4.350;2023-06-01T11:37:06;18.10;99.90
24860;DHT22;12936;52.006;4.350;2023-06-01T11:39:43;18.10;99.90
24860;DHT22;12936;52.006;4.350;2023-06-01T11:42:13;18.10;99.90
24860;DHT22;12936;52.006;4.350;2023-06-01T11:44:44;18.20;99.90
24860;DHT22;12936;52.006;4.350;2023-06-01T11:47:13;18.10;99.90
24860;DHT22;12936;52.006;4.350;2023-06-01T11:49:42;18.20;99.90
24860;DHT22;12936;52.006;4.350;2023-06-01T11:52:11;18.20;99.90
24860;DHT22;12936;52.006;4.350;2023-06-01T11:54:40;18.20;99.90
24860;DHT22;12936;52.006;4.350;2023-06-01T11:57:09;18.20;99.90
24860;DHT22;12936;52.006;4.350;2023-06-01T11:59:38;18.20;99.90
24860;DHT22;12936;52.006;4.350;2023-06-01T12:02:19;18.20;99.90
24860;DHT22;12936;52.006;4.350;2023-06-01T12:04:55;18.20;99.90
24860;DHT22;12936;52.006;4.350;2023-06-01T12:07:25;18.20;99.90
24860;DHT22;12936;52.006;4.350;2023-06-01T12:09:53;18.30;99.90
24860;DHT22;12936;52.006;4.350;2023-06-01T12:12:22;18.30;99.90
24860;DHT22;12936;52.006;4.350;2023-06-01T12:14:52;18.40;99.90
24860;DHT22;12936;52.006;4.350;2023-06-01T12:17:21;18.50;99.90
24860;DHT22;12936;52.006;4.350;2023-06-01T12:19:50;18.60;99.90
24860;DHT22;12936;52.006;4.350;2023-06-01T12:22:19;18.60;99.90
24860;DHT22;12936;52.006;4.350;2023-06-01T12:24:47;18.70;99.90
24860;DHT22;12936;52.006;4.350;2023-06-01T12:27:16;18.80;99.90
24860;DHT22;12936;52.006;4.350;2023-06-01T12:29:48;18.80;99.90
24860;DHT22;12936;52.006;4.350;2023-06-01T12:32:18;18.80;99.90
24860;DHT22;12936;52.006;4.350;2023-06-01T12:37:41;18.90;99.90
24860;DHT22;12936;52.006;4.350;2023-06-01T12:40:10;19.00;99.90
24860;DHT22;12936;52.006;4.350;2023-06-01T12:42:40;19.00;99.90
24860;DHT22;12936;52.006;4.350;2023-06-01T12:45:09;19.10;99.90
24860;DHT22;12936;52.006;4.350;2023-06-01T12:47:37;19.10;99.90
24860;DHT22;12936;52.006;4.350;2023-06-01T12:50:07;19.10;99.90
24860;DHT22;12936;52.006;4.350;2023-06-01T12:52:36;19.20;99.90
24860;DHT22;12936;52.006;4.350;2023-06-01T12:55:08;19.30;99.90
24860;DHT22;12936;52.006;4.350;2023-06-01T12:57:37;19.30;99.90
24860;DHT22;12936;52.006;4.350;2023-06-01T13:00:06;19.30;99.90
24860;DHT22;12936;52.006;4.350;2023-06-01T13:02:34;19.40;99.90
24860;DHT22;12936;52.006;4.350;2023-06-01T13:05:04;19.40;99.90
24860;DHT22;12936;52.006;4.350;2023-06-01T13:07:33;19.50;99.90
24860;DHT22;12936;52.006;4.350;2023-06-01T13:10:01;19.60;99.90
24860;DHT22;12936;52.006;4.350;2023-06-01T13:12:31;19.70;99.90
24860;DHT22;12936;52.006;4.350;2023-06-01T13:14:59;19.70;99.90
24860;DHT22;12936;52.006;4.350;2023-06-01T13:17:27;19.70;99.90
24860;DHT22;12936;52.006;4.350;2023-06-01T13:19:55;19.80;99.90
24860;DHT22;12936;52.006;4.350;2023-06-01T13:22:23;19.90;99.90
24860;DHT22;12936;52.006;4.350;2023-06-01T13:24:55;20.00;99.90
24860;DHT22;12936;52.006;4.350;2023-06-01T13:27:35;20.10;99.90
24860;DHT22;12936;52.006;4.350;2023-06-01T13:30:04;20.10;99.90
24860;DHT22;12936;52.006;4.350;2023-06-01T13:32:32;20.20;99.90
24860;DHT22;12936;52.006;4.350;2023-06-01T13:35:01;20.30;99.90
24860;DHT22;12936;52.006;4.350;2023-06-01T13:37:29;20.30;99.90
24860;DHT22;12936;52.006;4.350;2023-06-01T13:39:58;20.40;99.90
24860;DHT22;12936;52.006;4.350;2023-06-01T13:42:27;20.50;99.90
24860;DHT22;12936;52.006;4.350;2023-06-01T13:44:57;20.40;99.90
24860;DHT22;12936;52.006;4.350;2023-06-01T13:47:26;20.40;99.90
24860;DHT22;12936;52.006;4.350;2023-06-01T13:49:54;20.30;99.90
24860;DHT22;12936;52.006;4.350;2023-06-01T13:52:22;20.20;99.90
24860;DHT22;12936;52.006;4.350;2023-06-01T13:54:52;20.20;99.90
24860;DHT22;12936;52.006;4.350;2023-06-01T13:57:20;20.30;99.90
24860;DHT22;12936;52.006;4.350;2023-06-01T13:59:49;20.30;99.90
24860;DHT22;12936;52.006;4.350;2023-06-01T14:02:18;20.30;99.90
24860;DHT22;12936;52.006;4.350;2023-06-01T14:04:47;20.30;99.90
24860;DHT22;12936;52.006;4.350;2023-06-01T14:07:29;20.30;99.90
24860;DHT22;12936;52.006;4.350;2023-06-01T14:09:57;20.30;99.90
24860;DHT22;12936;52.006;4.350;2023-06-01T14:12:25;20.20;99.90
24860;DHT22;12936;52.006;4.350;2023-06-01T14:14:54;20.10;99.90
24860;DHT22;12936;52.006;4.350;2023-06-01T14:17:24;20.00;99.90
24860;DHT22;12936;52.006;4.350;2023-06-01T14:19:52;19.70;99.90
24860;DHT22;12936;52.006;4.350;2023-06-01T14:22:20;19.60;99.90
24860;DHT22;12936;52.006;4.350;2023-06-01T14:24:50;19.40;99.90
24860;DHT22;12936;52.006;4.350;2023-06-01T14:27:18;19.40;99.90
24860;DHT22;12936;52.006;4.350;2023-06-01T14:29:46;19.30;99.90
24860;DHT22;12936;52.006;4.350;2023-06-01T14:32:15;19.20;99.90
24860;DHT22;12936;52.006;4.350;2023-06-01T14:34:44;19.10;99.90
24860;DHT22;12936;52.006;4.350;2023-06-01T14:37:12;19.00;99.90
24860;DHT22;12936;52.006;4.350;2023-06-01T14:39:41;18.90;99.90
24860;DHT22;12936;52.006;4.350;2023-06-01T14:42:09;18.80;99.90
24860;DHT22;12936;52.006;4.350;2023-06-01T14:44:57;18.70;99.90
24860;DHT22;12936;52.006;4.350;2023-06-01T14:47:32;18.60;99.90
24860;DHT22;12936;52.006;4.350;2023-06-01T14:52:45;18.50;99.90
24860;DHT22;12936;52.006;4.350;2023-06-01T14:55:14;18.50;99.90
24860;DHT22;12936;52.006;4.350;2023-06-01T14:57:43;18.50;99.90
24860;DHT22;12936;52.006;4.350;2023-06-01T15:00:12;18.50;99.90
24860;DHT22;12936;52.006;4.350;2023-06-01T15:02:41;18.50;99.90
24860;DHT22;12936;52.006;4.350;2023-06-01T15:05:10;18.50;99.90
24860;DHT22;12936;52.006;4.350;2023-06-01T15:07:39;18.40;99.90
24860;DHT22;12936;52.006;4.350;2023-06-01T15:10:08;18.40;99.90
24860;DHT22;12936;52.006;4.350;2023-06-01T15:12:37;18.40;99.90
24860;DHT22;12936;52.006;4.350;2023-06-01T15:15:07;18.50;99.90
24860;DHT22;12936;52.006;4.350;2023-06-01T15:17:36;18.50;99.90
24860;DHT22;12936;52.006;4.350;2023-06-01T15:20:07;18.60;99.90
24860;DHT22;12936;52.006;4.350;2023-06-01T15:22:41;18.60;99.90
24860;DHT22;12936;52.006;4.350;2023-06-01T15:25:09;18.60;99.90
24860;DHT22;12936;52.006;4.350;2023-06-01T15:27:37;18.60;99.90
24860;DHT22;12936;52.006;4.350;2023-06-01T15:30:07;18.60;99.90
24860;DHT22;12936;52.006;4.350;2023-06-01T15:32:35;18.50;99.90
24860;DHT22;12936;52.006;4.350;2023-06-01T15:35:04;18.50;99.90
24860;DHT22;12936;52.006;4.350;2023-06-01T15:37:34;18.50;99.90
24860;DHT22;12936;52.006;4.350;2023-06-01T15:40:11;18.50;99.90
24860;DHT22;12936;52.006;4.350;2023-06-01T15:42:40;18.40;99.90
24860;DHT22;12936;52.006;4.350;2023-06-01T15:45:09;18.40;99.90
24860;DHT22;12936;52.006;4.350;2023-06-01T15:47:37;18.40;99.90
24860;DHT22;12936;52.006;4.350;2023-06-01T15:50:07;18.40;99.90
24860;DHT22;12936;52.006;4.350;2023-06-01T15:52:35;18.40;99.90
24860;DHT22;12936;52.006;4.350;2023-06-01T15:55:05;18.30;99.90
24860;DHT22;12936;52.006;4.350;2023-06-01T15:57:34;18.30;99.90
24860;DHT22;12936;52.006;4.350;2023-06-01T16:00:03;18.30;99.90
24860;DHT22;12936;52.006;4.350;2023-06-01T16:02:32;18.30;99.90